KQND

Camp Nothing Hil

Camp Nothing Hil,
METAR KQND 190956Z AUTO VRB06G13KT 6000 HZ CLR 28/M05 A3001 RMK AO2 SLPNO WND DATA ESTMD T02771051
Observed Flight Rules
Jan-19 @ 09:56 UTC (15 hours ago) Marginal Visual Flight Rules
Wind Visibility Clouds Conditions
Variable at 6 knots
 Gusting to 13 knots
6,003 meters
  • Clear skies
  • Haze
Temperatures Readings
Current 28°C / 82°F
Dewpoint -5°C / 23°F
Humidity 11%
Altimeter 30.01" Hg
Pressure 1016 hPa
METAR KQND 190956Z AUTO VRB06G13KT 6000 HZ CLR 28/M05 A3001 RMK AO2 SLPNO WND DATA ESTMD T02771051
Observed Flight Rules
Jan-19 @ 09:56 UTC
(15 hours ago)
MVFR
Wind Visibility
Variable at 6 knots
 Gusting to 13 knots
6,003 meters
Clouds
  • Clear skies
Conditions
  • Haze
Temperature Dewpoint
28°C / 82°F -5°C / 23°F
Humidity Altimeter Pressure
11% 30.01" Hg 1016 hPa